Terminal Aerodrome Forecast
Issued by NWS

Current Version | Previous Version | Graphics & Text | Print | Product List | Glossary On
Versions: 1 2 3 4 5 6 7 8 9 10 11 12 13 14 15 16 17
000
FTUS41 KRNK 191120
TAFLWB
TAF
KLWB 191120Z 1912/2012 00000KT 1 1/2SM BR OVC001
      TEMPO 1912/1913 1/4SM FG
     FM191300 28004KT 2SM BR SCT003
     FM191400 29005KT P6SM FEW050
     FM200900 00000KT 2SM BR SCT001=

USA.gov is the U.S. government's official web portal to all federal, state and local government web resources and services.